Time;durP1;ratioP1;P1;durP2;ratioP2;P2;SDS_P1;SDS_P2;PMS_P1;PMS_P2;Temp;Humidity;BMP_temperature;BMP_pressure;BME280_temperature;BME280_humidity;BME280_pressure;Samples;Min_cycle;Max_cycle;Signal;HPM_P1;HPM_P2
2021/11/01 00:00:11;;;;;;;;;;;;;;;;;;1030082;28;1045;-23
2021/11/01 00:00:43;;;;;;;;;;;;;;;;;;1033995;28;1410;-24
2021/11/01 00:01:14;;;;;;;;;;;;;;;;;;1038013;28;1131;-25
2021/11/01 00:01:45;;;;;;;;;;;;;;;;;;1042387;28;1615;-22
2021/11/01 00:02:16;;;;;;;;;;;;;;;;;;1042391;28;1596;-22
2021/11/01 00:02:47;;;;;;;;;;;;;;;;;;1042102;28;1000;-24
2021/11/01 00:03:17;;;;;;;;;;;;;;;;;;1029175;28;1578;-22
2021/11/01 00:03:48;;;;;;;;;;;;;;;;;;1021390;28;1119;-22
2021/11/01 00:04:18;;;;;;;;;;;;;;;;;;1025635;28;1403;-20
2021/11/01 00:04:49;;;;;;;;;;;;;;;;;;1038231;28;1144;-22
2021/11/01 00:05:21;;;;;;;;;;;;;;;;;;1038311;28;1018;-21
2021/11/01 00:05:52;;;;;;;;;;;;;;;;;;1042193;28;1682;-21
2021/11/01 00:06:22;;;;;;;;;;;;;;;;;;1042049;28;1015;-20
2021/11/01 00:06:53;;;;;;;;;;;;;;;;;;1042547;28;1032;-22
2021/11/01 00:07:24;;;;;;;;;;;;;;;;;;1041645;28;1556;-24
2021/11/01 00:07:54;;;;;;;;;;;;;;;;;;1042481;28;1316;-22
2021/11/01 00:08:25;;;;;;;;;;;;;;;;;;1042443;28;1095;-21
2021/11/01 00:08:56;;;;;;;;;;;;;;;;;;1030896;28;1022;-27
2021/11/01 00:09:29;;;;;;;;;;;;;;;;;;1030872;28;1353;-22
2021/11/01 00:09:59;;;;;;;;;;;;;;;;;;1030641;28;1617;-24
2021/11/01 00:10:29;;;;;;;;;;;;;;;;;;1033449;28;1161;-20
2021/11/01 00:11:00;;;;;;;;;;;;;;;;;;1032211;28;1756;-21
2021/11/01 00:11:30;;;;;;;;;;;;;;;;;;1031854;28;1978;-23
2021/11/01 00:12:01;;;;;;;;;;;;;;;;;;1032974;28;1109;-22
2021/11/01 00:12:32;;;;;;;;;;;;;;;;;;1037388;28;1137;-22
2021/11/01 00:13:03;;;;;;;;;;;;;;;;;;1036351;28;1267;-23
2021/11/01 00:13:33;;;;;;;;;;;;;;;;;;1041642;28;2100;-19
2021/11/01 00:14:04;;;;;;;;;;;;;;;;;;1041661;28;1161;-22
2021/11/01 00:14:34;;;;;;;;;;;;;;;;;;1033911;28;1486;-21
2021/11/01 00:15:07;;;;;;;;;;;;;;;;;;1033750;28;1282;-21
2021/11/01 00:15:37;;;;;;;;;;;;;;;;;;1042331;28;1123;-20
2021/11/01 00:16:08;;;;;;;;;;;;;;;;;;1039697;28;1081;-23
2021/11/01 00:16:40;;;;;;;;;;;;;;;;;;1040668;28;1235;-23
2021/11/01 00:17:11;;;;;;;;;;;;;;;;;;1040809;28;1251;-22
2021/11/01 00:17:42;;;;;;;;;;;;;;;;;;1035838;28;1465;-21
2021/11/01 00:18:13;;;;;;;;;;;;;;;;;;1035090;28;1176;-22
2021/11/01 00:18:43;;;;;;;;;;;;;;;;;;1040266;28;1239;-21
2021/11/01 00:19:14;;;;;;;;;;;;;;;;;;1036379;28;1544;-24
2021/11/01 00:19:45;;;;;;;;;;;;;;;;;;1031175;28;1265;-21
2021/11/01 00:20:15;;;;;;;;;;;;;;;;;;1032820;28;1188;-22
2021/11/01 00:20:46;;;;;;;;;;;;;;;;;;1032591;28;1105;-21
2021/11/01 00:21:16;;;;;;;;;;;;;;;;;;1034278;28;1248;-24
2021/11/01 00:21:47;;;;;;;;;;;;;;;;;;1034339;28;970;-20
2021/11/01 00:22:18;;;;;;;;;;;;;;;;;;1030248;28;1347;-20
2021/11/01 00:22:49;;;;;;;;;;;;;;;;;;1030040;28;1181;-23
2021/11/01 00:23:19;;;;;;;;;;;;;;;;;;1026419;28;1166;-24
2021/11/01 00:23:50;;;;;;;;;;;;;;;;;;1028028;28;1414;-20
2021/11/01 00:24:20;;;;;;;;;;;;;;;;;;1032258;28;1404;-21
2021/11/01 00:24:51;;;;;;;;;;;;;;;;;;1034477;28;1046;-23
2021/11/01 00:25:21;;;;;;;;;;;;;;;;;;1034769;28;1077;-21
2021/11/01 00:25:52;;;;;;;;;;;;;;;;;;1034593;28;1489;-21
2021/11/01 00:26:22;;;;;;;;;;;;;;;;;;1035025;28;1002;-23
2021/11/01 00:26:52;;;;;;;;;;;;;;;;;;1034762;28;1548;-22
2021/11/01 00:27:23;;;;;;;;;;;;;;;;;;1034216;28;1233;-20
2021/11/01 00:27:55;;;;;;;;;;;;;;;;;;1034143;28;1366;-21
2021/11/01 00:28:26;;;;;;;;;;;;;;;;;;1037975;28;1357;-20
2021/11/01 00:28:57;;;;;;;;;;;;;;;;;;1038158;28;1061;-21
2021/11/01 00:29:27;;;;;;;;;;;;;;;;;;1034380;28;1075;-24
2021/11/01 00:29:58;;;;;;;;;;;;;;;;;;1033974;28;1114;-25
2021/11/01 00:30:28;;;;;;;;;;;;;;;;;;1029497;28;1439;-22
2021/11/01 00:30:58;;;;;;;;;;;;;;;;;;1029804;28;1641;-22
2021/11/01 00:31:30;;;;;;;;;;;;;;;;;;1034143;28;1987;-21
2021/11/01 00:32:00;;;;;;;;;;;;;;;;;;1034343;28;1390;-21
2021/11/01 00:32:31;;;;;;;;;;;;;;;;;;1033418;28;1453;-29
2021/11/01 00:33:01;;;;;;;;;;;;;;;;;;1034371;28;1139;-23
2021/11/01 00:33:32;;;;;;;;;;;;;;;;;;1037732;28;1457;-23
2021/11/01 00:34:02;;;;;;;;;;;;;;;;;;1038032;28;1141;-20
2021/11/01 00:34:33;;;;;;;;;;;;;;;;;;1038261;28;1146;-22
2021/11/01 00:35:05;;;;;;;;;;;;;;;;;;1038255;28;1394;-22
2021/11/01 00:35:37;;;;;;;;;;;;;;;;;;1034806;28;1083;-20
2021/11/01 00:36:08;;;;;;;;;;;;;;;;;;1035056;28;1137;-21
2021/11/01 00:36:39;;;;;;;;;;;;;;;;;;1034919;28;902;-21
2021/11/01 00:37:10;;;;;;;;;;;;;;;;;;1034284;28;1026;-21
2021/11/01 00:37:41;;;;;;;;;;;;;;;;;;1038334;28;1160;-22
2021/11/01 00:38:11;;;;;;;;;;;;;;;;;;1037925;28;1251;-22
2021/11/01 00:38:42;;;;;;;;;;;;;;;;;;1038565;28;1077;-24
2021/11/01 00:39:13;;;;;;;;;;;;;;;;;;1038050;28;966;-20
2021/11/01 00:39:43;;;;;;;;;;;;;;;;;;1034918;28;819;-20
2021/11/01 00:40:13;;;;;;;;;;;;;;;;;;1034407;28;974;-21
2021/11/01 00:40:44;;;;;;;;;;;;;;;;;;1029949;28;1420;-22
2021/11/01 00:41:15;;;;;;;;;;;;;;;;;;1034268;28;1089;-21
2021/11/01 00:41:46;;;;;;;;;;;;;;;;;;1033405;28;1416;-21
2021/11/01 00:42:17;;;;;;;;;;;;;;;;;;1034207;28;1097;-21
2021/11/01 00:42:48;;;;;;;;;;;;;;;;;;1034020;28;1124;-22
2021/11/01 00:43:18;;;;;;;;;;;;;;;;;;1033999;28;1022;-23
2021/11/01 00:43:48;;;;;;;;;;;;;;;;;;1030348;28;996;-21
2021/11/01 00:44:19;;;;;;;;;;;;;;;;;;1030183;28;926;-21
2021/11/01 00:44:49;;;;;;;;;;;;;;;;;;1039004;28;1130;-23
2021/11/01 00:45:20;;;;;;;;;;;;;;;;;;1042352;28;1185;-22
2021/11/01 00:45:50;;;;;;;;;;;;;;;;;;1042428;28;1120;-20
2021/11/01 00:46:21;;;;;;;;;;;;;;;;;;1042202;28;1116;-20
2021/11/01 00:46:51;;;;;;;;;;;;;;;;;;1037661;28;1631;-24
2021/11/01 00:47:22;;;;;;;;;;;;;;;;;;1038125;28;1247;-21
2021/11/01 00:47:53;;;;;;;;;;;;;;;;;;1038255;28;1427;-24
2021/11/01 00:48:23;;;;;;;;;;;;;;;;;;1033859;28;1233;-23
2021/11/01 00:48:54;;;;;;;;;;;;;;;;;;1038161;28;1032;-22
2021/11/01 00:49:26;;;;;;;;;;;;;;;;;;1038034;28;1423;-21
2021/11/01 00:49:56;;;;;;;;;;;;;;;;;;1042152;28;1072;-21
2021/11/01 00:50:28;;;;;;;;;;;;;;;;;;1046294;28;957;-21
2021/11/01 00:50:58;;;;;;;;;;;;;;;;;;1041503;28;1237;-19
2021/11/01 00:51:29;;;;;;;;;;;;;;;;;;1033525;28;1910;-21
2021/11/01 00:52:02;;;;;;;;;;;;;;;;;;1037911;28;1002;-22
2021/11/01 00:52:32;;;;;;;;;;;;;;;;;;1033673;28;1032;-21
2021/11/01 00:53:02;;;;;;;;;;;;;;;;;;1030570;28;938;-21
2021/11/01 00:53:35;;;;;;;;;;;;;;;;;;1033730;28;1624;-21
2021/11/01 00:54:08;;;;;;;;;;;;;;;;;;1038943;28;1309;-21
2021/11/01 00:54:40;;;;;;;;;;;;;;;;;;1038154;28;1031;-27
2021/11/01 00:55:20;;;;;;;;;;;;;;;;;;1042195;28;1175;-21
2021/11/01 00:55:52;;;;;;;;;;;;;;;;;;1042318;28;1093;-20
2021/11/01 00:56:22;;;;;;;;;;;;;;;;;;1039712;28;1055;-22
2021/11/01 00:56:53;;;;;;;;;;;;;;;;;;1035682;28;1121;-22
2021/11/01 00:57:24;;;;;;;;;;;;;;;;;;1038168;28;1528;-21
2021/11/01 00:57:55;;;;;;;;;;;;;;;;;;1050477;28;1127;-25
2021/11/01 00:58:26;;;;;;;;;;;;;;;;;;1050626;28;966;-21
2021/11/01 00:58:56;;;;;;;;;;;;;;;;;;1049982;28;1344;-21
2021/11/01 00:59:26;;;;;;;;;;;;;;;;;;1038197;28;1278;-20
2021/11/01 00:59:59;;;;;;;;;;;;;;;;;;1042316;28;1028;-22
2021/11/01 01:00:30;;;;;;;;;;;;;;;;;;1042292;28;1079;-22
2021/11/01 01:01:01;;;;;;;;;;;;;;;;;;1033959;28;1001;-21
2021/11/01 01:01:32;;;;;;;;;;;;;;;;;;1034023;28;1072;-21
2021/11/01 01:02:03;;;;;;;;;;;;;;;;;;1034368;28;1021;-22
2021/11/01 01:02:33;;;;;;;;;;;;;;;;;;1034177;28;952;-21
2021/11/01 01:03:03;;;;;;;;;;;;;;;;;;1039113;28;942;-24
2021/11/01 01:03:34;;;;;;;;;;;;;;;;;;1038670;28;906;-20
2021/11/01 01:04:05;;;;;;;;;;;;;;;;;;1038636;28;1527;-24
2021/11/01 01:04:35;;;;;;;;;;;;;;;;;;1041984;28;1135;-21
2021/11/01 01:05:08;;;;;;;;;;;;;;;;;;1042637;28;1162;-22
2021/11/01 01:05:42;;;;;;;;;;;;;;;;;;1037117;28;1530;-20
2021/11/01 01:06:12;;;;;;;;;;;;;;;;;;1038125;28;1178;-22
2021/11/01 01:06:43;;;;;;;;;;;;;;;;;;1033050;28;1459;-21
2021/11/01 01:07:13;;;;;;;;;;;;;;;;;;1025899;28;1172;-21
2021/11/01 01:07:44;;;;;;;;;;;;;;;;;;1026092;28;1005;-22
2021/11/01 01:08:17;;;;;;;;;;;;;;;;;;1029619;28;1441;-20
2021/11/01 01:08:47;;;;;;;;;;;;;;;;;;1038787;28;1040;-22
2021/11/01 01:09:18;;;;;;;;;;;;;;;;;;1046484;28;968;-21
2021/11/01 01:09:49;;;;;;;;;;;;;;;;;;1046069;28;1056;-21
2021/11/01 01:10:20;;;;;;;;;;;;;;;;;;1042302;28;1099;-22
2021/11/01 01:10:50;;;;;;;;;;;;;;;;;;1042221;28;1030;-21
2021/11/01 01:11:21;;;;;;;;;;;;;;;;;;1042284;28;1898;-27
2021/11/01 01:11:52;;;;;;;;;;;;;;;;;;1042221;28;1054;-21
2021/11/01 01:12:24;;;;;;;;;;;;;;;;;;1041921;28;1203;-21
2021/11/01 01:12:55;;;;;;;;;;;;;;;;;;1042435;28;1125;-21
2021/11/01 01:13:29;;;;;;;;;;;;;;;;;;1041758;28;1506;-24
2021/11/01 01:14:00;;;;;;;;;;;;;;;;;;1041607;28;1075;-19
2021/11/01 01:14:38;;;;;;;;;;;;;;;;;;1038659;28;1320;-23
2021/11/01 01:15:11;;;;;;;;;;;;;;;;;;1039043;28;1246;-22
2021/11/01 01:16:31;;;;;;;;;;;;;;;;;;1038777;28;1208;-21
2021/11/01 01:17:02;;;;;;;;;;;;;;;;;;1039012;28;1252;-25
2021/11/01 01:17:37;;;;;;;;;;;;;;;;;;1037642;28;1318;-22
2021/11/01 01:18:14;;;;;;;;;;;;;;;;;;1038867;28;1285;-22
2021/11/01 01:18:47;;;;;;;;;;;;;;;;;;1038597;28;1263;-24
2021/11/01 01:19:22;;;;;;;;;;;;;;;;;;1038868;28;1223;-21
2021/11/01 01:20:03;;;;;;;;;;;;;;;;;;1041815;28;1412;-20
2021/11/01 01:20:34;;;;;;;;;;;;;;;;;;1037871;28;1098;-23
2021/11/01 01:22:13;;;;;;;;;;;;;;;;;;1034121;28;1130;-21
2021/11/01 01:22:14;;;;;;;;;;;;;;;;;;1033967;28;1041;-21
2021/11/01 01:22:45;;;;;;;;;;;;;;;;;;1034428;28;1589;-20
2021/11/01 01:23:15;;;;;;;;;;;;;;;;;;1042195;28;1105;-22
2021/11/01 01:23:46;;;;;;;;;;;;;;;;;;1038106;28;1101;-21
2021/11/01 01:24:16;;;;;;;;;;;;;;;;;;1038054;28;1005;-22
2021/11/01 01:24:47;;;;;;;;;;;;;;;;;;1034106;28;1125;-21
2021/11/01 01:25:26;;;;;;;;;;;;;;;;;;1029786;28;1329;-20
2021/11/01 01:25:59;;;;;;;;;;;;;;;;;;1034065;28;1066;-22
2021/11/01 01:26:30;;;;;;;;;;;;;;;;;;1037058;28;1106;-21
2021/11/01 01:27:01;;;;;;;;;;;;;;;;;;1041621;28;1619;-19
2021/11/01 01:27:31;;;;;;;;;;;;;;;;;;1042207;28;1278;-23
2021/11/01 01:28:02;;;;;;;;;;;;;;;;;;1041745;28;1342;-20
2021/11/01 01:28:32;;;;;;;;;;;;;;;;;;1041855;28;1491;-20
2021/11/01 01:29:04;;;;;;;;;;;;;;;;;;1042325;28;1071;-23
2021/11/01 01:29:34;;;;;;;;;;;;;;;;;;1041548;28;1377;-21
2021/11/01 01:30:05;;;;;;;;;;;;;;;;;;1038062;28;1488;-24
2021/11/01 01:30:36;;;;;;;;;;;;;;;;;;1037874;28;1097;-21
2021/11/01 01:31:06;;;;;;;;;;;;;;;;;;1037805;28;1448;-22
2021/11/01 01:31:39;;;;;;;;;;;;;;;;;;1038124;28;1971;-21
2021/11/01 01:32:10;;;;;;;;;;;;;;;;;;1038793;28;1042;-23
2021/11/01 01:32:40;;;;;;;;;;;;;;;;;;1038943;28;1072;-21
2021/11/01 01:33:11;;;;;;;;;;;;;;;;;;1038291;28;1487;-21
2021/11/01 01:33:41;;;;;;;;;;;;;;;;;;1038225;28;1620;-21
2021/11/01 01:34:12;;;;;;;;;;;;;;;;;;1042110;28;1526;-23
2021/11/01 01:34:43;;;;;;;;;;;;;;;;;;1042047;28;1625;-20
2021/11/01 01:35:14;;;;;;;;;;;;;;;;;;1037733;28;1048;-21
2021/11/01 01:35:44;;;;;;;;;;;;;;;;;;1037941;28;1236;-19
2021/11/01 01:36:15;;;;;;;;;;;;;;;;;;1037605;28;1437;-22
2021/11/01 01:36:46;;;;;;;;;;;;;;;;;;1037981;28;1257;-22
2021/11/01 01:37:17;;;;;;;;;;;;;;;;;;1037920;28;1484;-21
2021/11/01 01:37:52;;;;;;;;;;;;;;;;;;1037677;28;1170;-21
2021/11/01 01:38:22;;;;;;;;;;;;;;;;;;1037604;28;1509;-23
2021/11/01 01:38:53;;;;;;;;;;;;;;;;;;1037854;28;2085;-21
2021/11/01 01:39:25;;;;;;;;;;;;;;;;;;1042286;28;1343;-21
2021/11/01 01:39:56;;;;;;;;;;;;;;;;;;1041865;28;1328;-20
2021/11/01 01:40:26;;;;;;;;;;;;;;;;;;1042249;28;1204;-25
2021/11/01 01:40:58;;;;;;;;;;;;;;;;;;1041739;28;1058;-20
2021/11/01 01:41:28;;;;;;;;;;;;;;;;;;1036180;28;1101;-21
2021/11/01 01:41:59;;;;;;;;;;;;;;;;;;1034837;28;1240;-23
2021/11/01 01:42:29;;;;;;;;;;;;;;;;;;1034864;28;946;-22
2021/11/01 01:43:00;;;;;;;;;;;;;;;;;;1033202;28;1602;-22
2021/11/01 01:43:30;;;;;;;;;;;;;;;;;;1033680;28;1228;-21
2021/11/01 01:44:01;;;;;;;;;;;;;;;;;;1033723;28;1506;-23
2021/11/01 01:44:33;;;;;;;;;;;;;;;;;;1033472;28;1301;-21
2021/11/01 01:45:06;;;;;;;;;;;;;;;;;;1034274;28;1330;-21
2021/11/01 01:45:37;;;;;;;;;;;;;;;;;;1033107;28;1314;-21
2021/11/01 01:46:08;;;;;;;;;;;;;;;;;;1029192;28;1038;-22
2021/11/01 01:46:39;;;;;;;;;;;;;;;;;;1037723;28;1537;-17
2021/11/01 01:47:10;;;;;;;;;;;;;;;;;;1037833;28;1270;-22
2021/11/01 01:47:41;;;;;;;;;;;;;;;;;;1037661;28;1237;-20
2021/11/01 01:48:13;;;;;;;;;;;;;;;;;;1033289;28;1368;-24
2021/11/01 01:48:44;;;;;;;;;;;;;;;;;;1033675;28;1306;-23
2021/11/01 01:49:15;;;;;;;;;;;;;;;;;;1029920;28;1120;-20
2021/11/01 01:49:45;;;;;;;;;;;;;;;;;;1029132;28;1564;-22
2021/11/01 01:50:16;;;;;;;;;;;;;;;;;;1029908;28;1117;-21
2021/11/01 01:50:46;;;;;;;;;;;;;;;;;;1029645;28;1455;-21
2021/11/01 01:51:17;;;;;;;;;;;;;;;;;;1034614;28;1014;-23
2021/11/01 01:51:47;;;;;;;;;;;;;;;;;;1029908;28;1911;-22
2021/11/01 01:52:19;;;;;;;;;;;;;;;;;;1029821;28;1297;-21
2021/11/01 01:52:52;;;;;;;;;;;;;;;;;;1030065;28;978;-21
2021/11/01 01:53:23;;;;;;;;;;;;;;;;;;1030674;28;997;-21
2021/11/01 01:53:53;;;;;;;;;;;;;;;;;;1033871;28;1711;-21
2021/11/01 01:54:25;;;;;;;;;;;;;;;;;;1038247;28;1016;-21
2021/11/01 01:54:56;;;;;;;;;;;;;;;;;;1045808;28;1146;-21
2021/11/01 01:55:26;;;;;;;;;;;;;;;;;;1046412;28;1073;-21
2021/11/01 01:55:57;;;;;;;;;;;;;;;;;;1045631;28;1399;-25
2021/11/01 01:56:28;;;;;;;;;;;;;;;;;;1041595;28;1229;-22
2021/11/01 01:56:59;;;;;;;;;;;;;;;;;;1033829;28;1038;-26
2021/11/01 01:57:30;;;;;;;;;;;;;;;;;;1033213;28;1312;-23
2021/11/01 01:58:00;;;;;;;;;;;;;;;;;;1029906;28;1495;-21
2021/11/01 01:58:34;;;;;;;;;;;;;;;;;;1029936;28;1135;-21
2021/11/01 01:59:12;;;;;;;;;;;;;;;;;;1037448;28;1172;-21
2021/11/01 01:59:44;;;;;;;;;;;;;;;;;;1038124;28;1075;-22
2021/11/01 02:01:23;;;;;;;;;;;;;;;;;;1031064;28;900;-21
2021/11/01 02:01:54;;;;;;;;;;;;;;;;;;1033909;28;990;-23
2021/11/01 02:02:25;;;;;;;;;;;;;;;;;;1034264;28;929;-20
2021/11/01 02:02:57;;;;;;;;;;;;;;;;;;1033418;28;1272;-20
2021/11/01 02:03:27;;;;;;;;;;;;;;;;;;1034026;28;988;-22
2021/11/01 02:03:58;;;;;;;;;;;;;;;;;;1033663;28;1662;-19
2021/11/01 02:04:29;;;;;;;;;;;;;;;;;;1037366;28;1160;-20
2021/11/01 02:05:00;;;;;;;;;;;;;;;;;;1038050;28;1206;-21
2021/11/01 02:05:37;;;;;;;;;;;;;;;;;;1037636;28;1296;-21
2021/11/01 02:06:10;;;;;;;;;;;;;;;;;;1037110;28;1312;-19
2021/11/01 02:06:45;;;;;;;;;;;;;;;;;;1034931;28;1130;-22
2021/11/01 02:07:19;;;;;;;;;;;;;;;;;;1037532;28;1386;-21
2021/11/01 02:07:52;;;;;;;;;;;;;;;;;;1038087;28;1301;-23
2021/11/01 02:08:23;;;;;;;;;;;;;;;;;;1037889;28;1884;-23
2021/11/01 02:09:04;;;;;;;;;;;;;;;;;;1037127;28;1370;-22
2021/11/01 02:09:45;;;;;;;;;;;;;;;;;;1034632;28;1161;-25
2021/11/01 02:10:17;;;;;;;;;;;;;;;;;;1037786;28;1407;-22
2021/11/01 02:10:56;;;;;;;;;;;;;;;;;;1033634;28;1407;-26
2021/11/01 02:11:32;;;;;;;;;;;;;;;;;;1033710;28;1894;-22
2021/11/01 02:12:04;;;;;;;;;;;;;;;;;;1031686;28;958;-21
2021/11/01 02:12:39;;;;;;;;;;;;;;;;;;1029903;28;1508;-20
2021/11/01 02:13:13;;;;;;;;;;;;;;;;;;1034647;28;1288;-20
2021/11/01 02:13:47;;;;;;;;;;;;;;;;;;1038029;28;1094;-24
2021/11/01 02:14:20;;;;;;;;;;;;;;;;;;1027353;28;1566;-19
2021/11/01 02:14:53;;;;;;;;;;;;;;;;;;1024582;28;1115;-19
2021/11/01 02:15:27;;;;;;;;;;;;;;;;;;1021459;29;1665;-21
2021/11/01 02:15:58;;;;;;;;;;;;;;;;;;1029102;28;1045;-21
2021/11/01 02:16:31;;;;;;;;;;;;;;;;;;1037958;28;1154;-21
2021/11/01 02:17:02;;;;;;;;;;;;;;;;;;1037603;28;1581;-23
2021/11/01 02:17:33;;;;;;;;;;;;;;;;;;1037330;28;1253;-21
2021/11/01 02:18:05;;;;;;;;;;;;;;;;;;1033748;28;1329;-19
2021/11/01 02:18:36;;;;;;;;;;;;;;;;;;1033756;28;1135;-21
2021/11/01 02:19:10;;;;;;;;;;;;;;;;;;1033754;28;1577;-21
2021/11/01 02:19:47;;;;;;;;;;;;;;;;;;1037477;28;1556;-23
2021/11/01 02:20:38;;;;;;;;;;;;;;;;;;1026348;28;1577;-21
2021/11/01 02:21:16;;;;;;;;;;;;;;;;;;1025157;28;1570;-21
2021/11/01 02:21:48;;;;;;;;;;;;;;;;;;1029663;28;1141;-23
2021/11/01 02:22:51;;;;;;;;;;;;;;;;;;1032172;28;1225;-21
2021/11/01 02:23:23;;;;;;;;;;;;;;;;;;1033821;28;958;-22
2021/11/01 02:24:13;;;;;;;;;;;;;;;;;;1034120;28;977;-21
2021/11/01 02:24:57;;;;;;;;;;;;;;;;;;1029063;28;1498;-21
2021/11/01 02:25:36;;;;;;;;;;;;;;;;;;1029820;28;1182;-22
2021/11/01 02:26:08;;;;;;;;;;;;;;;;;;1033515;28;1506;-22
2021/11/01 02:26:40;;;;;;;;;;;;;;;;;;1041110;28;1458;-20
2021/11/01 02:27:12;;;;;;;;;;;;;;;;;;1042029;28;1152;-20
2021/11/01 02:27:44;;;;;;;;;;;;;;;;;;1040310;28;1443;-21
2021/11/01 02:28:16;;;;;;;;;;;;;;;;;;1037871;28;1281;-20
2021/11/01 02:28:47;;;;;;;;;;;;;;;;;;1037911;28;1213;-20
2021/11/01 02:29:18;;;;;;;;;;;;;;;;;;1037986;28;982;-21
2021/11/01 02:29:49;;;;;;;;;;;;;;;;;;1037697;28;913;-23
2021/11/01 02:30:20;;;;;;;;;;;;;;;;;;1033942;28;1618;-20
2021/11/01 02:30:51;;;;;;;;;;;;;;;;;;1034319;28;1087;-20
2021/11/01 02:31:23;;;;;;;;;;;;;;;;;;1037262;28;1918;-19
2021/11/01 02:31:54;;;;;;;;;;;;;;;;;;1037887;28;1078;-20
2021/11/01 02:32:25;;;;;;;;;;;;;;;;;;1033823;28;1170;-24
2021/11/01 02:32:56;;;;;;;;;;;;;;;;;;1033549;28;1385;-22
2021/11/01 02:33:27;;;;;;;;;;;;;;;;;;1033857;28;1105;-25
2021/11/01 02:33:58;;;;;;;;;;;;;;;;;;1033975;28;1066;-21
2021/11/01 02:34:29;;;;;;;;;;;;;;;;;;1033506;28;1390;-21
2021/11/01 02:35:00;;;;;;;;;;;;;;;;;;1034009;28;1049;-21
2021/11/01 02:35:30;;;;;;;;;;;;;;;;;;1033368;28;1504;-21
2021/11/01 02:36:04;;;;;;;;;;;;;;;;;;1033561;28;1236;-21
2021/11/01 02:36:34;;;;;;;;;;;;;;;;;;1033756;28;1066;-22
2021/11/01 02:37:05;;;;;;;;;;;;;;;;;;1033862;28;1222;-20
2021/11/01 02:37:37;;;;;;;;;;;;;;;;;;1033946;28;1175;-19
2021/11/01 02:38:08;;;;;;;;;;;;;;;;;;1033532;28;1488;-20
2021/11/01 02:38:39;;;;;;;;;;;;;;;;;;1037888;28;1089;-21
2021/11/01 02:39:10;;;;;;;;;;;;;;;;;;1041788;28;1089;-22
2021/11/01 02:39:48;;;;;;;;;;;;;;;;;;1033818;28;1216;-22
2021/11/01 02:40:18;;;;;;;;;;;;;;;;;;1032794;28;1130;-21
2021/11/01 02:40:49;;;;;;;;;;;;;;;;;;1029766;28;1096;-20
2021/11/01 02:41:21;;;;;;;;;;;;;;;;;;1031074;28;1234;-23
2021/11/01 02:41:51;;;;;;;;;;;;;;;;;;1038820;28;1534;-25
2021/11/01 02:42:23;;;;;;;;;;;;;;;;;;1041106;28;1658;-22
2021/11/01 02:42:54;;;;;;;;;;;;;;;;;;1042008;28;1283;-22
2021/11/01 02:43:26;;;;;;;;;;;;;;;;;;1033538;28;1209;-20
2021/11/01 02:43:58;;;;;;;;;;;;;;;;;;1033897;28;1238;-21
2021/11/01 02:44:29;;;;;;;;;;;;;;;;;;1033627;28;1057;-20
2021/11/01 02:45:01;;;;;;;;;;;;;;;;;;1035022;28;1188;-21
2021/11/01 02:45:33;;;;;;;;;;;;;;;;;;1042178;28;1072;-22
2021/11/01 02:46:04;;;;;;;;;;;;;;;;;;1033680;28;1311;-22
2021/11/01 02:46:36;;;;;;;;;;;;;;;;;;1033408;28;1222;-20
2021/11/01 02:47:07;;;;;;;;;;;;;;;;;;1029455;28;1593;-21
2021/11/01 02:47:37;;;;;;;;;;;;;;;;;;1030385;28;1174;-23
2021/11/01 02:48:08;;;;;;;;;;;;;;;;;;1034842;28;1054;-20
2021/11/01 02:48:40;;;;;;;;;;;;;;;;;;1034615;28;1135;-20
2021/11/01 02:49:11;;;;;;;;;;;;;;;;;;1038199;28;1654;-20
2021/11/01 02:49:41;;;;;;;;;;;;;;;;;;1042619;28;1195;-21
2021/11/01 02:50:12;;;;;;;;;;;;;;;;;;1042765;28;1108;-22
2021/11/01 02:50:43;;;;;;;;;;;;;;;;;;1037795;28;1490;-24
2021/11/01 02:51:16;;;;;;;;;;;;;;;;;;1038672;28;1147;-22
2021/11/01 02:51:47;;;;;;;;;;;;;;;;;;1042507;28;1983;-22
2021/11/01 02:52:18;;;;;;;;;;;;;;;;;;1042426;28;1204;-21
2021/11/01 02:52:49;;;;;;;;;;;;;;;;;;1038702;28;1035;-23
2021/11/01 02:53:20;;;;;;;;;;;;;;;;;;1038139;28;1333;-20
2021/11/01 02:53:51;;;;;;;;;;;;;;;;;;1038649;28;1231;-20
2021/11/01 02:54:21;;;;;;;;;;;;;;;;;;1038661;28;1086;-22
2021/11/01 02:54:52;;;;;;;;;;;;;;;;;;1038576;28;1068;-21
2021/11/01 02:55:22;;;;;;;;;;;;;;;;;;1038829;28;1001;-22
2021/11/01 02:55:55;;;;;;;;;;;;;;;;;;1039247;28;1646;-21
2021/11/01 02:56:26;;;;;;;;;;;;;;;;;;1042837;28;1015;-22
2021/11/01 02:56:59;;;;;;;;;;;;;;;;;;1042683;28;1492;-22
2021/11/01 02:57:30;;;;;;;;;;;;;;;;;;1042461;28;1247;-21
2021/11/01 02:58:01;;;;;;;;;;;;;;;;;;1042867;28;1234;-21
2021/11/01 02:58:31;;;;;;;;;;;;;;;;;;1042527;28;1095;-21
2021/11/01 02:59:03;;;;;;;;;;;;;;;;;;1038564;28;1059;-24
2021/11/01 02:59:33;;;;;;;;;;;;;;;;;;1034374;28;1179;-20
2021/11/01 03:00:05;;;;;;;;;;;;;;;;;;1034276;28;1041;-21
2021/11/01 03:00:37;;;;;;;;;;;;;;;;;;1034204;28;1014;-20
2021/11/01 03:01:08;;;;;;;;;;;;;;;;;;1035113;28;1087;-22
2021/11/01 03:01:39;;;;;;;;;;;;;;;;;;1046507;28;1115;-20
2021/11/01 03:02:10;;;;;;;;;;;;;;;;;;1038470;28;1010;-20
2021/11/01 03:02:41;;;;;;;;;;;;;;;;;;1029623;28;1296;-21
2021/11/01 03:03:13;;;;;;;;;;;;;;;;;;1026448;28;1579;-29
2021/11/01 03:03:44;;;;;;;;;;;;;;;;;;1026848;28;1070;-21
2021/11/01 03:04:14;;;;;;;;;;;;;;;;;;1030870;28;1098;-21
2021/11/01 03:04:45;;;;;;;;;;;;;;;;;;1034772;28;953;-22
2021/11/01 03:05:17;;;;;;;;;;;;;;;;;;1038171;28;1378;-20
2021/11/01 03:05:47;;;;;;;;;;;;;;;;;;1035159;28;1085;-25
2021/11/01 03:06:21;;;;;;;;;;;;;;;;;;1042112;28;1773;-21
2021/11/01 03:06:52;;;;;;;;;;;;;;;;;;1042659;28;1195;-23
2021/11/01 03:07:23;;;;;;;;;;;;;;;;;;1038061;28;1324;-22
2021/11/01 03:07:55;;;;;;;;;;;;;;;;;;1029151;28;1505;-21
2021/11/01 03:08:28;;;;;;;;;;;;;;;;;;1034394;28;1178;-24
2021/11/01 03:08:59;;;;;;;;;;;;;;;;;;1034362;28;1275;-21
2021/11/01 03:09:31;;;;;;;;;;;;;;;;;;1035325;28;1284;-24
2021/11/01 03:10:03;;;;;;;;;;;;;;;;;;1038755;28;1620;-22
2021/11/01 03:10:34;;;;;;;;;;;;;;;;;;1037800;28;1612;-20
2021/11/01 03:11:05;;;;;;;;;;;;;;;;;;1042672;28;1136;-21
2021/11/01 03:11:36;;;;;;;;;;;;;;;;;;1034320;28;1985;-19
2021/11/01 03:12:08;;;;;;;;;;;;;;;;;;1038438;28;1043;-20
2021/11/01 03:12:40;;;;;;;;;;;;;;;;;;1034223;28;1217;-20
2021/11/01 03:13:11;;;;;;;;;;;;;;;;;;1030506;28;1565;-22
2021/11/01 03:13:43;;;;;;;;;;;;;;;;;;1038414;28;1187;-21
2021/11/01 03:14:18;;;;;;;;;;;;;;;;;;1038636;28;1362;-21
2021/11/01 03:14:56;;;;;;;;;;;;;;;;;;1038507;28;1079;-23
2021/11/01 03:15:31;;;;;;;;;;;;;;;;;;1038664;28;1026;-23
2021/11/01 03:16:04;;;;;;;;;;;;;;;;;;1038650;28;957;-21
2021/11/01 03:16:34;;;;;;;;;;;;;;;;;;1042671;28;1115;-21
2021/11/01 03:17:05;;;;;;;;;;;;;;;;;;1042742;28;1027;-22
2021/11/01 03:17:37;;;;;;;;;;;;;;;;;;1042857;28;968;-21
2021/11/01 03:18:09;;;;;;;;;;;;;;;;;;1042449;28;1087;-19
2021/11/01 03:19:00;;;;;;;;;;;;;;;;;;1038435;28;1244;-21
2021/11/01 03:19:37;;;;;;;;;;;;;;;;;;1034498;28;1125;-24
2021/11/01 03:20:11;;;;;;;;;;;;;;;;;;1034485;28;1000;-20
2021/11/01 03:20:43;;;;;;;;;;;;;;;;;;1038502;28;1059;-22
2021/11/01 03:21:16;;;;;;;;;;;;;;;;;;1038397;28;1385;-20
2021/11/01 03:21:47;;;;;;;;;;;;;;;;;;1046601;28;1006;-23
2021/11/01 03:22:18;;;;;;;;;;;;;;;;;;1047309;28;1300;-21
2021/11/01 03:22:54;;;;;;;;;;;;;;;;;;1054948;28;1166;-21
2021/11/01 03:23:25;;;;;;;;;;;;;;;;;;1053049;28;1376;-20
2021/11/01 03:23:57;;;;;;;;;;;;;;;;;;1042396;28;1546;-22
2021/11/01 03:24:33;;;;;;;;;;;;;;;;;;1041232;28;1102;-20
2021/11/01 03:25:10;;;;;;;;;;;;;;;;;;1038320;28;1304;-19
2021/11/01 03:25:45;;;;;;;;;;;;;;;;;;1040530;28;1017;-21
2021/11/01 03:26:22;;;;;;;;;;;;;;;;;;1042843;28;964;-24
2021/11/01 03:26:53;;;;;;;;;;;;;;;;;;1042529;28;1231;-20
2021/11/01 03:27:24;;;;;;;;;;;;;;;;;;1041119;28;1063;-22
2021/11/01 03:27:56;;;;;;;;;;;;;;;;;;1042404;28;1156;-21
2021/11/01 03:28:27;;;;;;;;;;;;;;;;;;1042576;28;964;-23
2021/11/01 03:29:00;;;;;;;;;;;;;;;;;;1042098;28;1260;-21
2021/11/01 03:29:32;;;;;;;;;;;;;;;;;;1042623;28;1212;-22
2021/11/01 03:30:03;;;;;;;;;;;;;;;;;;1042534;28;940;-21
2021/11/01 03:30:34;;;;;;;;;;;;;;;;;;1039273;28;1016;-20
2021/11/01 03:31:05;;;;;;;;;;;;;;;;;;1039265;28;898;-21
2021/11/01 03:31:38;;;;;;;;;;;;;;;;;;1042787;28;1910;-20
2021/11/01 03:32:09;;;;;;;;;;;;;;;;;;1042329;28;1495;-21
2021/11/01 03:32:40;;;;;;;;;;;;;;;;;;1042757;28;1313;-20
2021/11/01 03:33:13;;;;;;;;;;;;;;;;;;1037593;28;1228;-21
2021/11/01 03:33:43;;;;;;;;;;;;;;;;;;1030413;28;1146;-21
2021/11/01 03:34:15;;;;;;;;;;;;;;;;;;1030363;28;1143;-22
2021/11/01 03:34:46;;;;;;;;;;;;;;;;;;1034802;28;1103;-22
2021/11/01 03:35:18;;;;;;;;;;;;;;;;;;1046605;28;1102;-21
2021/11/01 03:35:49;;;;;;;;;;;;;;;;;;1038183;28;1846;-21
2021/11/01 03:36:19;;;;;;;;;;;;;;;;;;1038629;28;1245;-22
2021/11/01 03:36:51;;;;;;;;;;;;;;;;;;1038460;28;1428;-21
2021/11/01 03:37:21;;;;;;;;;;;;;;;;;;1042444;28;1565;-20
2021/11/01 03:37:54;;;;;;;;;;;;;;;;;;1046772;28;1308;-21
2021/11/01 03:38:24;;;;;;;;;;;;;;;;;;1046622;28;1519;-21
2021/11/01 03:38:56;;;;;;;;;;;;;;;;;;1046050;28;1455;-21
2021/11/01 03:39:27;;;;;;;;;;;;;;;;;;1038900;28;1247;-20
2021/11/01 03:39:59;;;;;;;;;;;;;;;;;;1039036;28;1220;-22
2021/11/01 03:40:33;;;;;;;;;;;;;;;;;;1039200;28;1095;-20
2021/11/01 03:41:09;;;;;;;;;;;;;;;;;;1038692;28;1481;-19
2021/11/01 03:41:41;;;;;;;;;;;;;;;;;;1039097;28;1243;-21
2021/11/01 03:42:14;;;;;;;;;;;;;;;;;;1039443;28;1288;-24
2021/11/01 03:42:44;;;;;;;;;;;;;;;;;;1038225;28;1214;-20
2021/11/01 03:43:27;;;;;;;;;;;;;;;;;;1034391;28;1211;-21
2021/11/01 03:44:02;;;;;;;;;;;;;;;;;;1034052;28;1580;-21